Time;durP1;ratioP1;P1;durP2;ratioP2;P2;SDS_P1;SDS_P2;PMS_P1;PMS_P2;Temp;Humidity;BMP_temperature;BMP_pressure;BME280_temperature;BME280_humidity;BME280_pressure;Samples;Min_cycle;Max_cycle;Signal;HPM_P1;HPM_P2
2022/06/06 00:01:17;;;;;;;0.30;0.30;;;;;;;;;;1797713;78;26393;-55
2022/06/06 00:03:45;;;;;;;2.27;0.40;;;;;;;;;;1795694;78;26290;-57
2022/06/06 00:06:13;;;;;;;0.90;0.40;;;;;;;;;;1798988;78;26936;-57
2022/06/06 00:08:42;;;;;;;0.30;0.30;;;;;;;;;;1797787;78;26746;-57
2022/06/06 00:11:10;;;;;;;4.65;0.78;;;;;;;;;;1799621;78;26322;-55
2022/06/06 00:13:38;;;;;;;0.40;0.40;;;;;;;;;;1801446;78;26718;-56
2022/06/06 00:16:06;;;;;;;0.40;0.40;;;;;;;;;;1799468;78;26309;-56
2022/06/06 00:18:34;;;;;;;0.35;0.35;;;;;;;;;;1798967;78;26293;-56
2022/06/06 00:21:01;;;;;;;0.30;0.30;;;;;;;;;;1799603;78;26306;-53
2022/06/06 00:23:28;;;;;;;0.50;0.30;;;;;;;;;;1798881;78;26293;-56
2022/06/06 00:25:57;;;;;;;0.50;0.50;;;;;;;;;;1800764;78;26283;-56
2022/06/06 00:28:24;;;;;;;3.22;0.50;;;;;;;;;;1796357;78;26384;-53
2022/06/06 00:34:48;;;;;;;1.02;0.30;;;;;;;;;;1813201;78;26333;-56
2022/06/06 00:36:12;;;;;;;0.37;0.30;;;;;;;;;;1798811;78;26339;-57
2022/06/06 00:38:39;;;;;;;0.23;0.23;;;;;;;;;;1808552;78;26238;-56
2022/06/06 00:41:07;;;;;;;0.33;0.33;;;;;;;;;;1800021;79;26727;-53
2022/06/06 00:43:34;;;;;;;0.50;0.37;;;;;;;;;;1798572;79;25733;-56
2022/06/06 00:46:02;;;;;;;0.45;0.40;;;;;;;;;;1800775;78;26861;-57
2022/06/06 00:48:39;;;;;;;0.35;0.35;;;;;;;;;;1800305;78;26715;-55
2022/06/06 00:51:14;;;;;;;0.37;0.37;;;;;;;;;;1798083;78;26750;-57
2022/06/06 00:53:43;;;;;;;0.45;0.37;;;;;;;;;;1786969;78;26365;-56
2022/06/06 00:56:14;;;;;;;1.12;0.37;;;;;;;;;;1794734;78;26271;-55
2022/06/06 00:58:43;;;;;;;0.30;0.30;;;;;;;;;;1795861;78;26373;-56
2022/06/06 01:01:10;;;;;;;0.30;0.30;;;;;;;;;;1797114;78;27007;-55
2022/06/06 01:03:38;;;;;;;0.30;0.30;;;;;;;;;;1794759;78;26304;-57
2022/06/06 01:06:07;;;;;;;0.37;0.30;;;;;;;;;;1798582;78;26699;-57
2022/06/06 01:08:36;;;;;;;0.30;0.30;;;;;;;;;;1819476;78;26288;-56
2022/06/06 01:11:04;;;;;;;0.45;0.45;;;;;;;;;;1793267;78;26342;-56
2022/06/06 01:13:33;;;;;;;0.30;0.30;;;;;;;;;;1788998;78;26285;-52
2022/06/06 01:16:08;;;;;;;0.85;0.40;;;;;;;;;;1790932;78;26388;-55
2022/06/06 01:18:53;;;;;;;0.33;0.33;;;;;;;;;;1777100;79;26337;-55
2022/06/06 01:21:40;;;;;;;0.30;0.30;;;;;;;;;;1765400;79;26894;-55
2022/06/06 01:24:15;;;;;;;0.33;0.33;;;;;;;;;;1777720;79;26301;-55
2022/06/06 01:26:44;;;;;;;0.40;0.40;;;;;;;;;;1763695;79;26349;-56
2022/06/06 01:29:12;;;;;;;0.37;0.37;;;;;;;;;;1768765;79;26318;-57
2022/06/06 01:31:44;;;;;;;0.35;0.35;;;;;;;;;;1779452;79;26763;-57
2022/06/06 01:34:13;;;;;;;1.32;0.40;;;;;;;;;;1771795;79;26267;-53
2022/06/06 01:36:41;;;;;;;0.30;0.30;;;;;;;;;;1774974;80;26238;-55
2022/06/06 01:39:10;;;;;;;0.40;0.40;;;;;;;;;;1776004;79;26300;-53
2022/06/06 01:41:39;;;;;;;0.98;0.30;;;;;;;;;;1768569;79;26308;-57
2022/06/06 01:44:08;;;;;;;0.23;0.23;;;;;;;;;;1766076;80;26323;-57
2022/06/06 01:46:36;;;;;;;0.30;0.30;;;;;;;;;;1765817;79;26869;-57
2022/06/06 01:49:05;;;;;;;0.20;0.20;;;;;;;;;;1765414;79;26292;-56
2022/06/06 01:51:33;;;;;;;0.30;0.30;;;;;;;;;;1768217;80;26282;-55
2022/06/06 01:54:00;;;;;;;0.60;0.50;;;;;;;;;;1761544;79;26774;-58
2022/06/06 01:56:29;;;;;;;1.10;0.40;;;;;;;;;;1772269;79;26279;-57
2022/06/06 01:58:57;;;;;;;0.40;0.40;;;;;;;;;;1762481;79;26314;-55
2022/06/06 02:01:24;;;;;;;1.10;0.50;;;;;;;;;;1767542;79;26275;-57
2022/06/06 02:03:53;;;;;;;0.35;0.35;;;;;;;;;;1766486;79;26318;-55
2022/06/06 02:06:20;;;;;;;1.00;0.30;;;;;;;;;;1764543;79;26417;-53
2022/06/06 02:08:50;;;;;;;0.40;0.40;;;;;;;;;;1770623;79;26379;-58
2022/06/06 02:11:18;;;;;;;1.40;0.30;;;;;;;;;;1769300;80;26889;-54
2022/06/06 02:13:46;;;;;;;0.33;0.30;;;;;;;;;;1790710;80;26340;-57
2022/06/06 02:16:13;;;;;;;0.30;0.30;;;;;;;;;;1787524;78;26354;-57
2022/06/06 02:18:41;;;;;;;0.30;0.30;;;;;;;;;;1796134;78;26614;-58
2022/06/06 02:21:08;;;;;;;0.30;0.30;;;;;;;;;;1792024;78;26739;-56
2022/06/06 02:23:36;;;;;;;0.30;0.30;;;;;;;;;;1802904;78;26373;-56
2022/06/06 02:26:03;;;;;;;0.40;0.40;;;;;;;;;;1799431;78;27033;-55
2022/06/06 02:28:31;;;;;;;0.37;0.37;;;;;;;;;;1803124;78;26354;-56
2022/06/06 02:30:58;;;;;;;0.30;0.30;;;;;;;;;;1798567;78;26326;-57
2022/06/06 02:33:25;;;;;;;0.37;0.30;;;;;;;;;;1797462;78;26314;-55
2022/06/06 02:35:53;;;;;;;0.35;0.35;;;;;;;;;;1798393;78;26314;-57
2022/06/06 02:38:21;;;;;;;0.80;0.37;;;;;;;;;;1809095;78;26326;-56
2022/06/06 02:40:48;;;;;;;0.20;0.20;;;;;;;;;;1799582;78;26302;-54
2022/06/06 02:43:18;;;;;;;0.40;0.40;;;;;;;;;;1794125;78;26697;-57
2022/06/06 02:45:46;;;;;;;0.33;0.33;;;;;;;;;;1790022;78;26357;-53
2022/06/06 02:48:14;;;;;;;0.40;0.40;;;;;;;;;;1798094;78;26310;-57
2022/06/06 02:50:42;;;;;;;2.20;0.30;;;;;;;;;;1798560;78;26352;-56
2022/06/06 02:53:10;;;;;;;0.33;0.33;;;;;;;;;;1797951;78;26323;-54
2022/06/06 02:55:38;;;;;;;0.50;0.42;;;;;;;;;;1797213;78;26785;-56
2022/06/06 02:58:05;;;;;;;0.53;0.40;;;;;;;;;;1799426;78;26376;-57
2022/06/06 03:00:34;;;;;;;0.30;0.30;;;;;;;;;;1796284;78;27821;-57
2022/06/06 03:03:01;;;;;;;1.45;0.30;;;;;;;;;;1799777;78;26396;-55
2022/06/06 03:05:42;;;;;;;1.77;0.40;;;;;;;;;;1800916;78;26644;-57
2022/06/06 03:08:14;;;;;;;0.33;0.33;;;;;;;;;;1795352;78;26858;-56
2022/06/06 03:10:59;;;;;;;0.30;0.30;;;;;;;;;;1766159;79;26755;-54
2022/06/06 03:13:31;;;;;;;0.30;0.30;;;;;;;;;;1798302;78;26303;-54
2022/06/06 03:21:56;;;;;;;0.35;0.35;;;;;;;;;;1784835;80;26351;-55
2022/06/06 03:24:25;;;;;;;0.30;0.30;;;;;;;;;;1776627;79;26337;-56
2022/06/06 03:27:03;;;;;;;0.40;0.40;;;;;;;;;;1754449;80;26790;-57
2022/06/06 03:29:32;;;;;;;0.53;0.20;;;;;;;;;;1763020;80;26854;-57
2022/06/06 03:32:08;;;;;;;0.40;0.40;;;;;;;;;;1769126;80;26270;-56
2022/06/06 03:34:37;;;;;;;0.30;0.30;;;;;;;;;;1770033;79;26360;-57
2022/06/06 03:37:12;;;;;;;0.20;0.20;;;;;;;;;;1788613;79;26369;-56
2022/06/06 03:39:44;;;;;;;0.30;0.30;;;;;;;;;;1756046;80;26369;-55
2022/06/06 03:42:12;;;;;;;0.30;0.30;;;;;;;;;;1769192;79;26750;-56
2022/06/06 03:45:00;;;;;;;0.40;0.40;;;;;;;;;;1766308;79;26837;-57
2022/06/06 03:47:34;;;;;;;1.07;0.37;;;;;;;;;;1767477;80;26267;-56
2022/06/06 03:50:03;;;;;;;0.20;0.20;;;;;;;;;;1764352;80;26305;-55
2022/06/06 03:52:34;;;;;;;0.30;0.30;;;;;;;;;;1767654;79;26359;-55
2022/06/06 03:55:21;;;;;;;0.40;0.40;;;;;;;;;;1766439;80;26302;-56
2022/06/06 03:57:50;;;;;;;0.40;0.40;;;;;;;;;;1771955;80;26583;-57
2022/06/06 04:00:18;;;;;;;0.20;0.20;;;;;;;;;;1766130;79;26793;-55
2022/06/06 04:02:46;;;;;;;0.40;0.40;;;;;;;;;;1767963;80;26349;-57
2022/06/06 04:05:14;;;;;;;0.30;0.30;;;;;;;;;;1768759;80;26588;-57
2022/06/06 04:07:42;;;;;;;0.20;0.20;;;;;;;;;;1768916;79;26283;-57
2022/06/06 04:10:10;;;;;;;0.40;0.40;;;;;;;;;;1744725;81;26349;-56
2022/06/06 04:12:55;;;;;;;0.30;0.30;;;;;;;;;;1768104;80;26824;-55
2022/06/06 04:15:27;;;;;;;0.30;0.30;;;;;;;;;;1767743;80;26317;-56
2022/06/06 04:17:58;;;;;;;0.37;0.37;;;;;;;;;;1794454;78;26818;-57
2022/06/06 04:20:33;;;;;;;0.20;0.20;;;;;;;;;;1800196;78;26305;-56
2022/06/06 04:23:02;;;;;;;2.52;0.40;;;;;;;;;;1798496;78;26778;-58
2022/06/06 04:25:36;;;;;;;0.30;0.30;;;;;;;;;;1797389;78;27450;-56
2022/06/06 04:28:11;;;;;;;0.30;0.30;;;;;;;;;;1797417;78;26345;-57
2022/06/06 04:30:43;;;;;;;0.40;0.40;;;;;;;;;;1800490;78;26266;-55
2022/06/06 04:33:15;;;;;;;0.20;0.20;;;;;;;;;;1800199;78;26325;-54
2022/06/06 04:35:50;;;;;;;0.30;0.30;;;;;;;;;;1799469;78;27365;-57
2022/06/06 04:38:22;;;;;;;0.30;0.30;;;;;;;;;;1798120;78;26738;-57
2022/06/06 04:41:06;;;;;;;0.37;0.37;;;;;;;;;;1800949;78;26376;-57
2022/06/06 04:43:44;;;;;;;0.40;0.40;;;;;;;;;;1804971;78;26374;-55
2022/06/06 04:46:16;;;;;;;1.35;0.30;;;;;;;;;;1803866;78;26352;-55
2022/06/06 04:48:44;;;;;;;0.40;0.40;;;;;;;;;;1796533;78;26314;-57
2022/06/06 04:51:13;;;;;;;0.30;0.30;;;;;;;;;;1800252;78;26311;-58
2022/06/06 04:53:41;;;;;;;0.20;0.20;;;;;;;;;;1800401;78;26309;-57
2022/06/06 04:56:09;;;;;;;0.40;0.40;;;;;;;;;;1801243;78;27333;-57
2022/06/06 04:58:37;;;;;;;0.40;0.40;;;;;;;;;;1798979;78;26518;-57
2022/06/06 05:01:05;;;;;;;0.30;0.30;;;;;;;;;;1800589;78;26290;-55
2022/06/06 05:03:32;;;;;;;0.30;0.30;;;;;;;;;;1799508;78;26307;-57
2022/06/06 05:06:06;;;;;;;0.20;0.20;;;;;;;;;;1797229;78;26319;-54
2022/06/06 05:08:35;;;;;;;0.40;0.40;;;;;;;;;;1806058;78;26322;-57
2022/06/06 05:11:13;;;;;;;0.40;0.40;;;;;;;;;;1798895;78;26719;-57
2022/06/06 05:13:58;;;;;;;0.25;0.25;;;;;;;;;;1799994;78;26616;-58
2022/06/06 05:16:43;;;;;;;0.33;0.33;;;;;;;;;;1798356;78;26473;-57
2022/06/06 05:19:12;;;;;;;0.60;0.60;;;;;;;;;;1799490;78;26311;-58
2022/06/06 05:21:58;;;;;;;0.23;0.23;;;;;;;;;;1799362;78;26234;-55
2022/06/06 05:24:45;;;;;;;0.30;0.30;;;;;;;;;;1799326;78;26309;-56
2022/06/06 05:27:13;;;;;;;0.40;0.40;;;;;;;;;;1792917;78;26812;-54
2022/06/06 05:29:59;;;;;;;0.40;0.40;;;;;;;;;;1798694;78;26913;-56
2022/06/06 05:32:28;;;;;;;0.33;0.33;;;;;;;;;;1800901;78;26282;-57
2022/06/06 05:35:05;;;;;;;0.30;0.30;;;;;;;;;;1800842;78;26600;-56
2022/06/06 05:37:37;;;;;;;1.20;0.30;;;;;;;;;;1802516;78;26216;-57
2022/06/06 05:40:15;;;;;;;0.40;0.40;;;;;;;;;;1797611;78;26741;-58
2022/06/06 05:42:47;;;;;;;0.33;0.33;;;;;;;;;;1800617;78;26336;-55
2022/06/06 05:45:15;;;;;;;0.30;0.30;;;;;;;;;;1799686;78;26457;-55
2022/06/06 05:48:03;;;;;;;0.40;0.40;;;;;;;;;;1799511;78;26309;-57
2022/06/06 05:50:34;;;;;;;0.40;0.40;;;;;;;;;;1800711;78;26297;-57
2022/06/06 05:53:20;;;;;;;0.30;0.30;;;;;;;;;;1789876;78;26385;-57
2022/06/06 05:56:00;;;;;;;0.40;0.40;;;;;;;;;;1797811;78;26286;-57
2022/06/06 05:58:47;;;;;;;0.98;0.40;;;;;;;;;;1797529;78;26294;-58
2022/06/06 06:01:16;;;;;;;0.35;0.35;;;;;;;;;;1799695;78;26718;-56
2022/06/06 06:04:01;;;;;;;0.62;0.40;;;;;;;;;;1799721;78;26845;-58
2022/06/06 06:06:30;;;;;;;0.90;0.50;;;;;;;;;;1799447;78;26738;-55
2022/06/06 06:08:59;;;;;;;0.30;0.30;;;;;;;;;;1798389;78;27043;-54
2022/06/06 06:11:28;;;;;;;0.35;0.35;;;;;;;;;;1799448;78;26274;-55
2022/06/06 06:13:57;;;;;;;0.30;0.30;;;;;;;;;;1798153;78;26283;-57
2022/06/06 06:16:25;;;;;;;0.30;0.30;;;;;;;;;;1801292;78;26702;-56
2022/06/06 06:18:54;;;;;;;0.68;0.28;;;;;;;;;;1800965;78;26330;-57
2022/06/06 06:21:23;;;;;;;0.30;0.30;;;;;;;;;;1797340;78;26290;-57
2022/06/06 06:23:52;;;;;;;0.30;0.30;;;;;;;;;;1801546;78;26404;-57
2022/06/06 06:26:20;;;;;;;0.35;0.35;;;;;;;;;;1795947;78;26290;-57
2022/06/06 06:28:49;;;;;;;0.40;0.40;;;;;;;;;;1798707;78;26354;-56
2022/06/06 06:31:20;;;;;;;0.30;0.30;;;;;;;;;;1800707;78;26417;-54
2022/06/06 06:33:49;;;;;;;0.30;0.30;;;;;;;;;;1806915;78;26290;-54
2022/06/06 06:36:18;;;;;;;0.37;0.37;;;;;;;;;;1801213;78;26836;-56
2022/06/06 06:38:56;;;;;;;0.30;0.30;;;;;;;;;;1801589;78;26644;-55
2022/06/06 06:41:25;;;;;;;1.20;0.30;;;;;;;;;;1800348;78;26734;-55
2022/06/06 06:44:02;;;;;;;0.30;0.30;;;;;;;;;;1801208;78;26322;-55
2022/06/06 06:46:33;;;;;;;0.37;0.37;;;;;;;;;;1801397;78;26327;-52
2022/06/06 06:49:11;;;;;;;0.57;0.57;;;;;;;;;;1806222;78;26304;-55
2022/06/06 06:51:43;;;;;;;2.55;0.42;;;;;;;;;;1801692;78;26527;-55
2022/06/06 06:54:23;;;;;;;2.20;0.50;;;;;;;;;;1798558;78;26692;-56
2022/06/06 06:57:09;;;;;;;1.22;0.40;;;;;;;;;;1800635;78;26397;-57
2022/06/06 06:59:44;;;;;;;0.80;0.60;;;;;;;;;;1797087;78;26786;-55
2022/06/06 07:08:34;;;;;;;1.95;0.40;;;;;;;;;;1798764;77;26326;-57
2022/06/06 07:11:09;;;;;;;1.47;0.47;;;;;;;;;;1803881;78;26892;-57
2022/06/06 07:13:46;;;;;;;1.25;0.40;;;;;;;;;;1815004;78;26817;-55
2022/06/06 07:16:21;;;;;;;2.47;0.60;;;;;;;;;;1798937;78;26319;-57
2022/06/06 07:18:50;;;;;;;2.15;0.40;;;;;;;;;;1799670;78;26339;-57
2022/06/06 07:21:19;;;;;;;3.47;0.45;;;;;;;;;;1801355;78;26283;-57
2022/06/06 07:23:48;;;;;;;0.98;0.60;;;;;;;;;;1796934;78;26884;-56
2022/06/06 07:26:17;;;;;;;1.47;0.60;;;;;;;;;;1798018;78;26325;-57
2022/06/06 07:28:44;;;;;;;3.95;0.60;;;;;;;;;;1797104;78;26855;-56
2022/06/06 07:31:19;;;;;;;4.95;0.50;;;;;;;;;;1797128;78;26361;-56
2022/06/06 07:33:53;;;;;;;4.40;0.70;;;;;;;;;;1793750;78;26361;-54
2022/06/06 07:36:39;;;;;;;4.50;0.72;;;;;;;;;;1795254;79;26790;-54
2022/06/06 07:39:07;;;;;;;6.08;0.80;;;;;;;;;;1795138;79;26314;-54
2022/06/06 07:41:51;;;;;;;5.87;0.70;;;;;;;;;;1796851;78;26770;-52
2022/06/06 07:44:26;;;;;;;7.72;1.27;;;;;;;;;;1796094;78;26310;-57
2022/06/06 07:47:00;;;;;;;2.27;0.53;;;;;;;;;;1798013;78;26396;-55
2022/06/06 07:49:29;;;;;;;4.75;0.60;;;;;;;;;;1793201;79;26284;-57
2022/06/06 07:52:01;;;;;;;4.12;0.80;;;;;;;;;;1797483;79;26361;-57
2022/06/06 07:54:30;;;;;;;4.95;0.60;;;;;;;;;;1792565;78;26291;-56
2022/06/06 07:57:01;;;;;;;5.28;0.60;;;;;;;;;;1792317;79;26308;-57
2022/06/06 07:59:30;;;;;;;4.72;0.65;;;;;;;;;;1799412;78;26294;-54
2022/06/06 08:02:00;;;;;;;3.67;0.60;;;;;;;;;;1798327;79;26303;-56
2022/06/06 08:04:29;;;;;;;4.95;0.60;;;;;;;;;;1796667;78;26922;-57
2022/06/06 08:07:09;;;;;;;3.08;0.60;;;;;;;;;;1795263;78;26350;-56
2022/06/06 08:09:38;;;;;;;0.50;0.50;;;;;;;;;;1792803;78;26315;-57
2022/06/06 08:12:15;;;;;;;0.70;0.50;;;;;;;;;;1794887;78;26236;-56
2022/06/06 08:14:47;;;;;;;0.82;0.45;;;;;;;;;;1792003;78;26854;-57
2022/06/06 08:17:33;;;;;;;1.02;0.80;;;;;;;;;;1796235;78;26917;-57
2022/06/06 08:20:09;;;;;;;1.02;0.60;;;;;;;;;;1795138;78;26349;-55
2022/06/06 08:22:42;;;;;;;0.88;0.53;;;;;;;;;;1795303;78;26679;-57
2022/06/06 08:25:06;;;;;;;3.75;0.30;;;;;;;;;;1782077;79;26306;-54
2022/06/06 08:27:34;;;;;;;1.35;0.40;;;;;;;;;;1796910;79;26960;-56
2022/06/06 08:30:01;;;;;;;2.15;0.47;;;;;;;;;;1798874;79;26329;-55
2022/06/06 08:32:29;;;;;;;0.55;0.55;;;;;;;;;;1798654;78;26345;-57
2022/06/06 08:34:58;;;;;;;0.80;0.40;;;;;;;;;;1799942;79;26310;-57
2022/06/06 08:37:32;;;;;;;0.45;0.45;;;;;;;;;;1805645;78;26669;-54
2022/06/06 08:40:18;;;;;;;0.55;0.42;;;;;;;;;;1796559;78;26666;-56
2022/06/06 08:43:03;;;;;;;3.17;0.50;;;;;;;;;;1798613;78;26367;-57
2022/06/06 08:45:48;;;;;;;4.37;0.40;;;;;;;;;;1792602;78;26369;-58
2022/06/06 08:48:17;;;;;;;2.45;0.70;;;;;;;;;;1797678;78;26287;-60
2022/06/06 08:51:05;;;;;;;0.40;0.40;;;;;;;;;;1801637;79;26825;-63
2022/06/06 08:53:33;;;;;;;0.70;0.37;;;;;;;;;;1798828;78;26393;-58
2022/06/06 08:56:14;;;;;;;0.75;0.28;;;;;;;;;;1798376;78;26293;-59
2022/06/06 08:59:00;;;;;;;0.72;0.57;;;;;;;;;;1795169;78;26406;-58
2022/06/06 09:01:35;;;;;;;0.30;0.30;;;;;;;;;;1795532;79;26876;-58
2022/06/06 09:04:16;;;;;;;1.65;0.60;;;;;;;;;;1804896;78;26868;-57
2022/06/06 09:06:44;;;;;;;0.47;0.37;;;;;;;;;;1799309;79;26357;-55
2022/06/06 09:09:28;;;;;;;0.47;0.37;;;;;;;;;;1796888;78;26272;-57
2022/06/06 09:12:06;;;;;;;1.10;0.50;;;;;;;;;;1799691;79;26310;-54
2022/06/06 09:14:35;;;;;;;0.37;0.37;;;;;;;;;;1797578;78;26283;-56
2022/06/06 09:17:21;;;;;;;0.40;0.40;;;;;;;;;;1798421;78;26368;-57
2022/06/06 09:19:53;;;;;;;0.40;0.40;;;;;;;;;;1798577;78;27026;-54
2022/06/06 09:22:39;;;;;;;1.50;0.40;;;;;;;;;;1788682;78;39294;-58
2022/06/06 09:25:20;;;;;;;0.40;0.40;;;;;;;;;;1799499;78;27400;-60
2022/06/06 09:28:06;;;;;;;0.65;0.30;;;;;;;;;;1788517;78;26648;-55
2022/06/06 09:30:41;;;;;;;1.85;0.50;;;;;;;;;;1798175;80;26314;-53
2022/06/06 09:33:25;;;;;;;0.20;0.20;;;;;;;;;;1780263;78;26270;-58
2022/06/06 09:35:54;;;;;;;1.22;0.50;;;;;;;;;;1786487;78;26275;-54
2022/06/06 09:38:39;;;;;;;0.50;0.50;;;;;;;;;;1800959;78;26284;-56
2022/06/06 09:41:26;;;;;;;0.55;0.13;;;;;;;;;;1799765;78;26355;-53
2022/06/06 09:43:58;;;;;;;0.40;0.40;;;;;;;;;;1793943;78;26323;-57
2022/06/06 09:46:29;;;;;;;0.40;0.40;;;;;;;;;;1792916;79;26810;-58
2022/06/06 09:49:15;;;;;;;0.50;0.50;;;;;;;;;;1788539;79;26278;-57
2022/06/06 09:51:44;;;;;;;0.40;0.40;;;;;;;;;;1792953;80;26368;-58
2022/06/06 10:00:21;;;;;;;0.60;0.60;;;;;;;;;;1792964;78;26351;-58
2022/06/06 10:02:53;;;;;;;0.40;0.40;;;;;;;;;;1799410;78;27324;-57
2022/06/06 10:05:27;;;;;;;0.50;0.50;;;;;;;;;;1773277;79;26376;-58
2022/06/06 10:08:02;;;;;;;0.62;0.35;;;;;;;;;;1795616;78;26287;-56
2022/06/06 10:10:48;;;;;;;1.30;0.40;;;;;;;;;;1795625;79;26390;-58
2022/06/06 10:13:17;;;;;;;0.45;0.45;;;;;;;;;;1794075;79;26923;-57
2022/06/06 10:16:02;;;;;;;0.50;0.50;;;;;;;;;;1797097;78;26290;-58
2022/06/06 10:18:37;;;;;;;0.30;0.30;;;;;;;;;;1796818;78;26385;-57
2022/06/06 10:21:22;;;;;;;0.60;0.60;;;;;;;;;;1790867;78;26282;-56
2022/06/06 10:23:51;;;;;;;0.45;0.33;;;;;;;;;;1790508;78;26817;-58
2022/06/06 10:26:27;;;;;;;0.40;0.40;;;;;;;;;;1796679;78;26853;-58
2022/06/06 10:29:02;;;;;;;0.50;0.50;;;;;;;;;;1792414;78;26794;-57
2022/06/06 10:31:40;;;;;;;1.45;0.40;;;;;;;;;;1795959;78;26323;-57
2022/06/06 10:34:27;;;;;;;1.95;0.42;;;;;;;;;;1793718;78;26802;-58
2022/06/06 10:36:55;;;;;;;0.40;0.40;;;;;;;;;;1783814;78;26678;-58
2022/06/06 10:39:24;;;;;;;0.42;0.42;;;;;;;;;;1792078;78;27213;-56
2022/06/06 10:42:02;;;;;;;0.45;0.45;;;;;;;;;;1796681;79;26361;-56
2022/06/06 10:44:46;;;;;;;0.55;0.55;;;;;;;;;;1796190;78;26284;-58
2022/06/06 10:47:14;;;;;;;2.02;0.55;;;;;;;;;;1794308;80;26711;-55
2022/06/06 10:49:49;;;;;;;0.40;0.40;;;;;;;;;;1791755;79;26754;-58
2022/06/06 10:52:21;;;;;;;0.60;0.60;;;;;;;;;;1798508;79;27467;-58
2022/06/06 10:54:52;;;;;;;0.85;0.60;;;;;;;;;;1794872;78;26716;-57
2022/06/06 10:57:27;;;;;;;0.50;0.50;;;;;;;;;;1794796;78;26312;-55
2022/06/06 10:59:59;;;;;;;0.50;0.50;;;;;;;;;;1795181;78;26569;-56
2022/06/06 11:02:40;;;;;;;0.30;0.30;;;;;;;;;;1794506;78;26307;-57
2022/06/06 11:05:20;;;;;;;0.40;0.40;;;;;;;;;;1795639;78;26330;-56
2022/06/06 11:07:52;;;;;;;0.33;0.33;;;;;;;;;;1791780;78;26919;-57
2022/06/06 11:10:24;;;;;;;0.42;0.37;;;;;;;;;;1796978;78;26429;-57
2022/06/06 11:13:11;;;;;;;0.40;0.40;;;;;;;;;;1791419;79;26307;-57
2022/06/06 11:15:38;;;;;;;0.40;0.40;;;;;;;;;;1797746;78;26716;-56
2022/06/06 11:18:07;;;;;;;0.62;0.50;;;;;;;;;;1796137;78;26764;-57
2022/06/06 11:20:52;;;;;;;0.30;0.30;;;;;;;;;;1797673;78;26403;-55
2022/06/06 11:23:20;;;;;;;0.45;0.45;;;;;;;;;;1794745;78;27253;-55
2022/06/06 11:25:49;;;;;;;0.50;0.50;;;;;;;;;;1794362;78;26259;-56
2022/06/06 11:28:18;;;;;;;0.42;0.42;;;;;;;;;;1795095;78;26340;-57
2022/06/06 11:30:47;;;;;;;0.40;0.40;;;;;;;;;;1799841;78;26418;-58
2022/06/06 11:33:31;;;;;;;1.57;0.50;;;;;;;;;;1794520;78;26364;-58
2022/06/06 11:36:16;;;;;;;0.40;0.40;;;;;;;;;;1792160;78;26299;-59
2022/06/06 11:38:46;;;;;;;0.68;0.40;;;;;;;;;;1795430;78;26282;-55
2022/06/06 11:41:15;;;;;;;2.30;0.40;;;;;;;;;;1768286;78;26790;-56
2022/06/06 11:43:44;;;;;;;1.45;0.50;;;;;;;;;;1796778;78;26310;-57
2022/06/06 11:46:30;;;;;;;0.40;0.40;;;;;;;;;;1795409;78;26290;-58
2022/06/06 11:49:04;;;;;;;0.42;0.40;;;;;;;;;;1795241;78;26302;-58
2022/06/06 11:51:50;;;;;;;0.47;0.47;;;;;;;;;;1799010;78;26259;-58
2022/06/06 11:54:25;;;;;;;0.50;0.50;;;;;;;;;;1797916;78;26595;-55
2022/06/06 11:57:12;;;;;;;2.92;0.50;;;;;;;;;;1795928;78;26294;-58
2022/06/06 11:59:48;;;;;;;0.40;0.40;;;;;;;;;;1795287;79;26371;-55
2022/06/06 12:02:23;;;;;;;0.85;0.70;;;;;;;;;;1789003;78;26357;-57
2022/06/06 12:05:10;;;;;;;0.40;0.40;;;;;;;;;;1815110;78;26751;-56
2022/06/06 12:07:55;;;;;;;1.85;0.40;;;;;;;;;;1792190;78;26209;-58
2022/06/06 12:10:24;;;;;;;0.65;0.65;;;;;;;;;;1795479;78;26310;-55
2022/06/06 12:12:53;;;;;;;0.40;0.40;;;;;;;;;;1799552;78;26255;-57
2022/06/06 12:15:21;;;;;;;0.60;0.60;;;;;;;;;;1794132;78;26375;-56
2022/06/06 12:18:07;;;;;;;2.47;0.50;;;;;;;;;;1789519;78;26817;-57
2022/06/06 12:20:39;;;;;;;0.60;0.60;;;;;;;;;;1790890;78;26318;-55
2022/06/06 12:23:07;;;;;;;0.40;0.40;;;;;;;;;;1797865;78;26343;-58
2022/06/06 12:25:39;;;;;;;0.68;0.40;;;;;;;;;;1796551;78;26249;-58
2022/06/06 12:28:14;;;;;;;0.75;0.47;;;;;;;;;;1798303;78;26296;-57
2022/06/06 12:30:43;;;;;;;0.50;0.50;;;;;;;;;;1798263;78;26843;-57
2022/06/06 12:33:15;;;;;;;0.50;0.50;;;;;;;;;;1798153;78;26336;-56
2022/06/06 12:35:49;;;;;;;1.35;0.37;;;;;;;;;;1800730;78;26306;-58
2022/06/06 12:38:18;;;;;;;0.50;0.50;;;;;;;;;;1798984;78;26755;-57
2022/06/06 12:41:00;;;;;;;0.50;0.50;;;;;;;;;;1794893;78;26298;-55
2022/06/06 12:43:31;;;;;;;0.95;0.50;;;;;;;;;;1799244;78;26225;-57
2022/06/06 12:46:03;;;;;;;0.40;0.40;;;;;;;;;;1795278;78;26330;-58
2022/06/06 12:48:33;;;;;;;0.47;0.47;;;;;;;;;;1799119;78;26774;-58
2022/06/06 12:51:14;;;;;;;0.45;0.45;;;;;;;;;;1800680;78;26314;-58
2022/06/06 12:53:53;;;;;;;1.20;0.45;;;;;;;;;;1798813;78;26731;-58
2022/06/06 12:56:25;;;;;;;0.68;0.47;;;;;;;;;;1786400;78;26755;-58
2022/06/06 12:58:57;;;;;;;1.30;0.47;;;;;;;;;;1800427;78;26357;-56
2022/06/06 13:01:38;;;;;;;2.30;0.62;;;;;;;;;;1795627;78;26278;-54
2022/06/06 13:04:09;;;;;;;1.95;0.55;;;;;;;;;;1799872;78;26318;-54
2022/06/06 13:06:44;;;;;;;2.40;0.75;;;;;;;;;;1801785;78;26817;-51
2022/06/06 13:09:31;;;;;;;3.42;0.68;;;;;;;;;;1797745;78;25832;-54
2022/06/06 13:12:03;;;;;;;2.10;0.62;;;;;;;;;;1787976;78;26318;-59
2022/06/06 13:14:35;;;;;;;1.98;0.53;;;;;;;;;;1793680;78;26699;-59
2022/06/06 13:17:04;;;;;;;3.50;0.40;;;;;;;;;;1801569;78;26368;-59
2022/06/06 13:19:39;;;;;;;1.12;0.60;;;;;;;;;;1801253;78;26384;-59
2022/06/06 13:22:20;;;;;;;1.75;0.50;;;;;;;;;;1784170;79;26350;-60
2022/06/06 13:25:07;;;;;;;1.00;0.50;;;;;;;;;;1766863;79;26630;-58
2022/06/06 13:27:42;;;;;;;0.68;0.50;;;;;;;;;;1768343;79;26703;-59
2022/06/06 13:30:26;;;;;;;1.95;0.70;;;;;;;;;;1760572;79;26740;-60
2022/06/06 13:32:55;;;;;;;0.82;0.50;;;;;;;;;;1773645;79;26703;-59
2022/06/06 13:35:27;;;;;;;0.82;0.50;;;;;;;;;;1775306;79;27399;-60
2022/06/06 13:37:59;;;;;;;1.98;0.65;;;;;;;;;;1775846;79;26686;-60
2022/06/06 13:40:28;;;;;;;1.65;0.50;;;;;;;;;;1790845;79;26317;-60
2022/06/06 13:43:03;;;;;;;1.12;0.40;;;;;;;;;;1792588;79;26290;-60
2022/06/06 13:45:32;;;;;;;0.50;0.50;;;;;;;;;;1779860;79;26380;-54
2022/06/06 13:48:18;;;;;;;0.47;0.47;;;;;;;;;;1792031;79;26348;-61
2022/06/06 13:50:50;;;;;;;0.50;0.50;;;;;;;;;;1755180;79;26632;-58
2022/06/06 13:53:38;;;;;;;2.72;1.05;;;;;;;;;;1755673;79;26294;-58
2022/06/06 13:56:12;;;;;;;0.40;0.40;;;;;;;;;;1760409;80;26765;-60
2022/06/06 13:58:41;;;;;;;0.75;0.62;;;;;;;;;;1768268;79;26294;-59
2022/06/06 14:01:13;;;;;;;2.37;0.60;;;;;;;;;;1767979;79;26380;-59
2022/06/06 14:03:42;;;;;;;0.85;0.50;;;;;;;;;;1761935;79;26294;-58
2022/06/06 14:06:17;;;;;;;1.12;0.50;;;;;;;;;;1781038;79;26893;-58
2022/06/06 14:08:46;;;;;;;0.70;0.70;;;;;;;;;;1799104;79;26715;-58
2022/06/06 14:11:15;;;;;;;0.70;0.57;;;;;;;;;;1762041;79;26407;-59
2022/06/06 14:13:44;;;;;;;1.27;0.60;;;;;;;;;;1775042;79;26298;-60
2022/06/06 14:16:16;;;;;;;0.50;0.50;;;;;;;;;;1767764;79;26384;-59
2022/06/06 14:18:45;;;;;;;3.72;0.70;;;;;;;;;;1775483;79;26277;-61
2022/06/06 14:21:13;;;;;;;0.40;0.40;;;;;;;;;;1776989;79;26873;-58
2022/06/06 14:23:43;;;;;;;1.30;0.70;;;;;;;;;;1796824;78;26680;-58
2022/06/06 14:26:11;;;;;;;2.77;0.60;;;;;;;;;;1795429;78;26296;-59
2022/06/06 14:28:40;;;;;;;1.02;0.70;;;;;;;;;;1795507;78;26279;-60
2022/06/06 14:31:21;;;;;;;0.98;0.62;;;;;;;;;;1798101;78;26330;-58
2022/06/06 14:33:56;;;;;;;0.90;0.60;;;;;;;;;;1800003;78;26334;-58
2022/06/06 14:36:28;;;;;;;4.67;0.80;;;;;;;;;;1794113;78;26741;-59
2022/06/06 14:38:56;;;;;;;1.10;0.60;;;;;;;;;;1800672;78;26307;-59
2022/06/06 14:41:30;;;;;;;0.70;0.70;;;;;;;;;;1799294;78;26738;-60
2022/06/06 14:43:59;;;;;;;2.08;0.62;;;;;;;;;;1800062;78;26364;-59
2022/06/06 14:46:27;;;;;;;1.72;0.70;;;;;;;;;;1798505;78;26364;-58
2022/06/06 14:48:57;;;;;;;2.85;0.70;;;;;;;;;;1791608;78;26393;-59
2022/06/06 14:51:35;;;;;;;2.52;1.00;;;;;;;;;;1797153;78;26381;-60
2022/06/06 14:54:05;;;;;;;7.53;0.60;;;;;;;;;;1798905;78;26794;-59
2022/06/06 14:56:34;;;;;;;1.47;0.70;;;;;;;;;;1797926;78;27202;-60
2022/06/06 14:59:06;;;;;;;0.60;0.60;;;;;;;;;;1798756;78;26356;-59
2022/06/06 15:01:34;;;;;;;1.45;0.80;;;;;;;;;;1810146;78;26282;-59
2022/06/06 15:04:03;;;;;;;1.37;0.80;;;;;;;;;;1804765;78;26353;-58
2022/06/06 15:06:31;;;;;;;1.80;0.68;;;;;;;;;;1811494;78;26272;-58
2022/06/06 15:09:07;;;;;;;1.70;0.98;;;;;;;;;;1819044;78;26466;-59
2022/06/06 15:11:35;;;;;;;1.07;0.60;;;;;;;;;;1805638;78;26299;-60
2022/06/06 15:14:05;;;;;;;1.00;0.70;;;;;;;;;;1800175;78;27246;-59
2022/06/06 15:16:33;;;;;;;0.62;0.62;;;;;;;;;;1798673;78;26314;-58
2022/06/06 15:19:03;;;;;;;8.43;0.85;;;;;;;;;;1802791;78;26294;-60
2022/06/06 15:21:31;;;;;;;0.93;0.85;;;;;;;;;;1802512;78;26315;-60
2022/06/06 15:24:00;;;;;;;3.85;1.00;;;;;;;;;;1810312;78;26385;-59
2022/06/06 15:26:41;;;;;;;1.40;0.80;;;;;;;;;;1796273;78;26315;-60
2022/06/06 15:29:25;;;;;;;3.70;0.70;;;;;;;;;;1797514;78;26292;-60
2022/06/06 15:32:00;;;;;;;1.65;0.60;;;;;;;;;;1790896;78;26298;-58
2022/06/06 15:34:28;;;;;;;1.87;0.75;;;;;;;;;;1800368;78;26290;-60
2022/06/06 15:37:09;;;;;;;0.75;0.75;;;;;;;;;;1789365;78;26380;-59
2022/06/06 15:39:41;;;;;;;2.10;0.70;;;;;;;;;;1779905;78;26313;-59